Alba, Missouri
Current Conditions -  °F | °C
As of 6:53 AM on Thursday 23 Oct 2014 (Local Time) from KJLN Reporting Station
Light Rain Light Rain  
Wind Chill: 58°   Ceiling: 10000
Heat Index: 58°   Visibility: 10mi
Dew Point: 52°   Wind: 7mph
Humidity: 81%   Direction: 170°S
Pressure: 30.14"   Gusts: NA
Location:  37.24°N, 94.42°W
Report Text: KJLN 231153Z 17006KT 10SM -RA OVC100 14/11 A3014 RMK AO2 RAB45 SLP202 P0000 60000 T01440111 10150 20139 53001
Loading
Personal Weather Stations






























Interactive Weather Map New forecast layout! Learn more

10-Day Weather Forecast

Advertisements
Track Severe Weather on mobile